Time;durP1;ratioP1;P1;durP2;ratioP2;P2;SDS_P1;SDS_P2;PMS_P1;PMS_P2;Temp;Humidity;BMP_temperature;BMP_pressure;BME280_temperature;BME280_humidity;BME280_pressure;Samples;Min_cycle;Max_cycle;Signal;HPM_P1;HPM_P2
2022/04/19 00:01:11;;;;;;;0.40;0.40;;;4.50;89.10;;;;;;5006400;28;20307;-73
2022/04/19 00:03:37;;;;;;;0.20;0.20;;;4.40;88.70;;;;;;5008484;28;20283;-73
2022/04/19 00:06:04;;;;;;;0.30;0.30;;;4.40;88.20;;;;;;4988511;28;20189;-73
2022/04/19 00:08:30;;;;;;;0.33;0.33;;;4.40;88.20;;;;;;5012677;28;20666;-74
2022/04/19 00:10:56;;;;;;;0.20;0.20;;;4.40;88.20;;;;;;5007839;28;20189;-74
2022/04/19 00:13:22;;;;;;;0.30;0.20;;;4.40;88.50;;;;;;5009357;28;20191;-74
2022/04/19 00:15:48;;;;;;;0.37;0.27;;;4.40;89.20;;;;;;5009503;28;20713;-74
2022/04/19 00:18:14;;;;;;;0.53;0.53;;;4.40;88.60;;;;;;5006025;28;20266;-74
2022/04/19 00:20:44;;;;;;;0.27;0.27;;;4.40;89.30;;;;;;5011993;28;20232;-74
2022/04/19 00:23:13;;;;;;;0.30;0.30;;;4.40;89.60;;;;;;5009032;28;20227;-74
2022/04/19 00:25:40;;;;;;;0.40;0.40;;;4.40;88.80;;;;;;5009933;28;20595;-74
2022/04/19 00:28:06;;;;;;;0.50;0.50;;;4.30;89.30;;;;;;5007211;28;21590;-74
2022/04/19 00:30:32;;;;;;;0.73;0.40;;;4.30;89.10;;;;;;5012052;28;20196;-73
2022/04/19 00:32:58;;;;;;;0.47;0.20;;;4.30;89.20;;;;;;5003259;28;20189;-74
2022/04/19 00:35:24;;;;;;;0.30;0.30;;;4.20;88.60;;;;;;5007839;28;20177;-74
2022/04/19 00:37:50;;;;;;;0.20;0.20;;;4.30;89.50;;;;;;5010487;28;20275;-73
2022/04/19 00:40:16;;;;;;;0.30;0.30;;;4.30;89.20;;;;;;5010506;28;20216;-73
2022/04/19 00:42:42;;;;;;;0.20;0.20;;;4.30;89.00;;;;;;5008503;28;20268;-73
2022/04/19 00:45:08;;;;;;;0.20;0.20;;;4.20;88.70;;;;;;5011465;28;20644;-73
2022/04/19 00:47:34;;;;;;;0.20;0.20;;;4.20;88.30;;;;;;5008776;28;20184;-73
2022/04/19 00:50:03;;;;;;;0.17;0.17;;;4.20;88.70;;;;;;5009415;28;20196;-73
2022/04/19 00:52:34;;;;;;;0.10;0.10;;;4.20;88.40;;;;;;5008330;28;20188;-74
2022/04/19 00:55:01;;;;;;;0.13;0.13;;;4.20;88.30;;;;;;5008238;28;20795;-73
2022/04/19 00:57:28;;;;;;;0.23;0.23;;;4.20;88.40;;;;;;5004917;28;20288;-74
2022/04/19 00:59:58;;;;;;;0.20;0.20;;;4.20;88.30;;;;;;5009536;28;20220;-74
2022/04/19 01:02:25;;;;;;;0.23;0.23;;;4.20;88.20;;;;;;5007125;28;20755;-74
2022/04/19 01:04:52;;;;;;;0.13;0.13;;;4.20;88.20;;;;;;5008705;28;20208;-74
2022/04/19 01:07:19;;;;;;;0.20;0.20;;;4.30;88.60;;;;;;5010779;28;20203;-75
2022/04/19 01:09:46;;;;;;;0.20;0.20;;;4.20;88.10;;;;;;5010972;28;20274;-75
2022/04/19 01:15:01;;;;;;;0.20;0.20;;;4.20;88.40;;;;;;5005231;28;20698;-75
2022/04/19 01:17:27;;;;;;;0.17;0.17;;;4.20;88.30;;;;;;5010442;28;20181;-74
2022/04/19 01:19:54;;;;;;;0.20;0.20;;;4.20;88.40;;;;;;5012301;28;20287;-75
2022/04/19 01:22:19;;;;;;;1.30;0.20;;;4.20;88.60;;;;;;5014484;28;20180;-75
2022/04/19 01:24:45;;;;;;;0.20;0.20;;;4.20;88.60;;;;;;5008018;28;20709;-75
2022/04/19 01:27:13;;;;;;;0.20;0.20;;;4.20;88.60;;;;;;5008588;28;20217;-75
2022/04/19 01:29:39;;;;;;;0.23;0.23;;;4.20;88.30;;;;;;5005745;28;20588;-75
2022/04/19 01:32:06;;;;;;;0.10;0.10;;;4.20;89.30;;;;;;5005968;28;20908;-75
2022/04/19 01:34:32;;;;;;;0.10;0.10;;;4.20;88.30;;;;;;5009934;28;20195;-75
2022/04/19 01:36:58;;;;;;;0.30;0.20;;;4.20;88.30;;;;;;5009608;28;20215;-75
2022/04/19 01:42:09;;;;;;;0.27;0.20;;;4.20;88.70;;;;;;5005691;28;20618;-75
2022/04/19 01:44:36;;;;;;;0.20;0.20;;;4.20;88.60;;;;;;5008366;28;20181;-74
2022/04/19 01:47:05;;;;;;;0.10;0.10;;;4.20;89.40;;;;;;5010532;28;20189;-74
2022/04/19 01:49:31;;;;;;;0.40;0.30;;;4.20;88.30;;;;;;5004845;28;20216;-73
2022/04/19 01:51:57;;;;;;;0.60;0.27;;;4.20;88.80;;;;;;5009628;28;20745;-74
2022/04/19 01:54:22;;;;;;;0.30;0.30;;;4.20;89.30;;;;;;5013888;28;20614;-74
2022/04/19 01:56:48;;;;;;;0.10;0.10;;;4.20;89.80;;;;;;5010329;28;20185;-74
2022/04/19 01:59:14;;;;;;;0.20;0.20;;;4.20;88.70;;;;;;5015335;28;20209;-74
2022/04/19 02:01:41;;;;;;;0.20;0.20;;;4.20;89.20;;;;;;5009455;28;20282;-74
2022/04/19 02:04:08;;;;;;;0.30;0.30;;;4.20;89.50;;;;;;5007839;28;20823;-74
2022/04/19 02:06:33;;;;;;;0.20;0.20;;;4.20;88.70;;;;;;5013597;28;20286;-74
2022/04/19 02:09:02;;;;;;;0.10;0.10;;;4.20;89.20;;;;;;5013703;28;20185;-75
2022/04/19 02:11:27;;;;;;;0.20;0.20;;;4.20;88.90;;;;;;5009840;28;20658;-75
2022/04/19 02:13:53;;;;;;;0.50;0.20;;;4.20;89.20;;;;;;5010864;28;20196;-74
2022/04/19 02:16:21;;;;;;;0.57;0.20;;;4.20;88.90;;;;;;5012686;28;20223;-74
2022/04/19 02:18:48;;;;;;;0.10;0.10;;;4.20;89.90;;;;;;5010693;28;20282;-74
2022/04/19 02:21:14;;;;;;;0.20;0.20;;;4.20;88.80;;;;;;5014003;28;20353;-74
2022/04/19 02:23:39;;;;;;;0.30;0.30;;;4.20;88.70;;;;;;5007344;28;20264;-74
2022/04/19 02:26:05;;;;;;;0.10;0.10;;;4.20;89.40;;;;;;5011717;28;20609;-74
2022/04/19 02:28:31;;;;;;;0.20;0.20;;;4.20;89.20;;;;;;5012364;28;20191;-73
2022/04/19 02:30:57;;;;;;;0.10;0.10;;;4.10;88.60;;;;;;5008197;28;20568;-74
2022/04/19 02:33:23;;;;;;;0.20;0.20;;;4.10;88.80;;;;;;5018438;28;20183;-74
2022/04/19 02:35:49;;;;;;;0.20;0.20;;;4.10;88.60;;;;;;5015932;28;20196;-73
2022/04/19 02:38:15;;;;;;;0.17;0.17;;;;;;;;;;5009045;28;20464;-73
2022/04/19 02:40:41;;;;;;;0.53;0.17;;;4.20;89.20;;;;;;5009235;28;20643;-73
2022/04/19 02:43:07;;;;;;;0.20;0.20;;;4.10;88.70;;;;;;5008994;28;20192;-73
2022/04/19 02:45:33;;;;;;;0.30;0.23;;;4.10;88.70;;;;;;5007531;28;20619;-73
2022/04/19 02:48:03;;;;;;;0.20;0.20;;;4.10;88.80;;;;;;5008260;28;20184;-73
2022/04/19 02:50:33;;;;;;;0.20;0.20;;;4.10;88.50;;;;;;5008141;28;20284;-74
2022/04/19 02:53:03;;;;;;;0.30;0.30;;;4.10;89.30;;;;;;5011019;28;20192;-74
2022/04/19 02:55:29;;;;;;;0.20;0.20;;;4.10;89.70;;;;;;5010635;28;20185;-73
2022/04/19 02:57:55;;;;;;;0.40;0.40;;;4.10;89.80;;;;;;5009338;28;20709;-73
2022/04/19 03:00:22;;;;;;;0.27;0.27;;;4.10;89.50;;;;;;5013822;28;20266;-74
2022/04/19 03:02:47;;;;;;;0.30;0.30;;;4.10;89.60;;;;;;5009507;28;20180;-74
2022/04/19 03:05:13;;;;;;;0.43;0.43;;;4.10;89.50;;;;;;5008698;28;20391;-74
2022/04/19 03:07:39;;;;;;;0.23;0.23;;;4.10;89.40;;;;;;5010337;28;20876;-75
2022/04/19 03:10:06;;;;;;;0.70;0.30;;;4.10;89.50;;;;;;5012859;28;20192;-74
2022/04/19 03:12:32;;;;;;;0.40;0.40;;;4.10;88.90;;;;;;5010849;28;20187;-74
2022/04/19 03:14:58;;;;;;;0.30;0.30;;;4.10;88.80;;;;;;5010554;28;20218;-74
2022/04/19 03:17:24;;;;;;;0.60;0.60;;;4.10;89.40;;;;;;5010618;28;20237;-74
2022/04/19 03:19:49;;;;;;;0.30;0.30;;;4.10;88.70;;;;;;5006883;28;20212;-74
2022/04/19 03:22:15;;;;;;;0.93;0.30;;;4.10;89.30;;;;;;5006377;28;20209;-75
2022/04/19 03:27:46;;;;;;;1.40;0.30;;;4.10;90.00;;;;;;5012290;28;20191;-74
2022/04/19 03:30:15;;;;;;;0.40;0.40;;;4.10;90.40;;;;;;5008307;28;20662;-74
2022/04/19 03:32:44;;;;;;;0.60;0.60;;;4.20;91.60;;;;;;5007955;28;20188;-75
2022/04/19 03:35:13;;;;;;;0.50;0.50;;;4.20;91.10;;;;;;5010102;28;20227;-73
2022/04/19 03:37:39;;;;;;;0.50;0.50;;;4.20;91.40;;;;;;5004265;28;20292;-73
2022/04/19 03:40:07;;;;;;;0.40;0.40;;;4.10;90.60;;;;;;5008386;28;20228;-73
2022/04/19 03:42:33;;;;;;;0.40;0.40;;;4.10;90.70;;;;;;5007139;28;20181;-74
2022/04/19 03:44:59;;;;;;;0.97;0.63;;;4.10;90.10;;;;;;5009632;28;20272;-74
2022/04/19 03:47:25;;;;;;;0.50;0.50;;;4.10;89.90;;;;;;5008694;28;20259;-73
2022/04/19 03:49:51;;;;;;;0.60;0.33;;;4.10;90.00;;;;;;5007128;28;20193;-73
2022/04/19 03:52:16;;;;;;;0.50;0.50;;;4.10;89.60;;;;;;5011169;28;20177;-73
2022/04/19 03:54:42;;;;;;;0.50;0.50;;;4.10;89.50;;;;;;5010919;28;20928;-74
2022/04/19 03:57:11;;;;;;;0.70;0.60;;;4.10;89.40;;;;;;5007463;28;20220;-74
2022/04/19 03:59:38;;;;;;;0.80;0.50;;;4.10;89.30;;;;;;5006416;28;20188;-74
2022/04/19 04:02:05;;;;;;;0.37;0.37;;;4.10;89.70;;;;;;5009652;28;20188;-74
2022/04/19 04:04:31;;;;;;;1.47;0.60;;;4.10;89.60;;;;;;5008309;28;20282;-73
2022/04/19 04:06:57;;;;;;;0.77;0.77;;;4.20;90.90;;;;;;5007912;28;20871;-74
2022/04/19 04:09:24;;;;;;;1.27;0.80;;;4.20;90.60;;;;;;5011514;28;20184;-74
2022/04/19 04:11:50;;;;;;;0.60;0.60;;;4.20;90.00;;;;;;5009741;28;20897;-74
2022/04/19 04:14:15;;;;;;;0.80;0.80;;;4.20;89.70;;;;;;5013725;28;20188;-74
2022/04/19 04:16:41;;;;;;;0.77;0.77;;;4.20;89.70;;;;;;5012274;28;20219;-75
2022/04/19 04:19:07;;;;;;;0.57;0.57;;;4.20;89.90;;;;;;5012788;28;20191;-75
2022/04/19 04:21:33;;;;;;;0.50;0.50;;;4.20;89.40;;;;;;5008660;28;20205;-75
2022/04/19 04:23:58;;;;;;;0.63;0.63;;;4.20;89.50;;;;;;5007592;28;20777;-75
2022/04/19 04:26:24;;;;;;;0.50;0.50;;;4.30;91.20;;;;;;5011497;28;20190;-75
2022/04/19 04:28:50;;;;;;;0.87;0.47;;;4.30;91.30;;;;;;5013654;28;20227;-74
2022/04/19 04:31:15;;;;;;;0.60;0.60;;;4.30;90.50;;;;;;5011191;28;20219;-75
2022/04/19 04:33:41;;;;;;;0.57;0.57;;;4.30;91.50;;;;;;5013020;28;20943;-75
2022/04/19 04:36:07;;;;;;;0.70;0.70;;;4.30;91.00;;;;;;5015887;28;20183;-75
2022/04/19 04:38:32;;;;;;;0.53;0.53;;;4.30;91.00;;;;;;5008257;28;20189;-75
2022/04/19 04:40:58;;;;;;;0.47;0.47;;;4.30;90.70;;;;;;5010347;28;20217;-75
2022/04/19 04:43:24;;;;;;;0.63;0.63;;;4.40;90.50;;;;;;5009071;28;20187;-75
2022/04/19 04:49:35;;;;;;;2.13;1.10;;;4.40;90.90;;;;;;5007861;28;20185;-74
2022/04/19 04:51:19;;;;;;;0.97;0.97;;;4.60;91.00;;;;;;5009186;28;20234;-73
2022/04/19 04:53:46;;;;;;;0.60;0.60;;;4.60;90.80;;;;;;5007393;28;20185;-75
2022/04/19 04:56:12;;;;;;;0.60;0.60;;;4.70;90.80;;;;;;5006111;28;20247;-74
2022/04/19 04:58:37;;;;;;;0.60;0.60;;;4.70;90.20;;;;;;5006544;28;20264;-77
2022/04/19 05:01:03;;;;;;;1.87;1.00;;;4.70;90.50;;;;;;5008501;28;20239;-77
2022/04/19 05:03:29;;;;;;;1.00;1.00;;;4.70;90.40;;;;;;5008986;28;20264;-75
2022/04/19 05:05:56;;;;;;;1.63;1.63;;;4.70;90.30;;;;;;5011806;28;20188;-75
2022/04/19 05:08:22;;;;;;;2.27;1.90;;;4.70;90.40;;;;;;5006635;28;20608;-74
2022/04/19 05:10:47;;;;;;;3.43;2.83;;;4.80;89.90;;;;;;5008943;28;20189;-75
2022/04/19 05:13:13;;;;;;;5.13;2.07;;;4.80;89.60;;;;;;5006251;28;20185;-73
2022/04/19 05:15:39;;;;;;;3.90;2.73;;;4.80;89.60;;;;;;5008228;28;20176;-75
2022/04/19 05:18:05;;;;;;;2.37;2.27;;;4.70;89.60;;;;;;5007237;28;20195;-74
2022/04/19 05:20:30;;;;;;;1.23;1.20;;;4.70;89.50;;;;;;5010423;28;20212;-75
2022/04/19 05:22:56;;;;;;;2.83;2.20;;;4.70;89.40;;;;;;5000118;28;20186;-76
2022/04/19 05:25:22;;;;;;;2.73;2.30;;;4.70;89.50;;;;;;5006546;28;20268;-77
2022/04/19 05:27:47;;;;;;;2.53;2.33;;;4.60;89.90;;;;;;5009161;28;20184;-79
2022/04/19 05:30:13;;;;;;;3.33;2.00;;;4.60;89.90;;;;;;5008300;28;20623;-73
2022/04/19 05:32:39;;;;;;;2.03;1.93;;;4.70;90.50;;;;;;5009885;28;20189;-80
2022/04/19 05:35:05;;;;;;;1.70;1.60;;;4.70;90.40;;;;;;5017263;28;20193;-75
2022/04/19 05:37:30;;;;;;;1.50;1.50;;;4.80;90.60;;;;;;5010779;28;20189;-75
2022/04/19 05:39:56;;;;;;;1.53;1.53;;;4.90;90.70;;;;;;5011528;28;20218;-73
2022/04/19 05:42:22;;;;;;;1.80;1.70;;;4.90;90.30;;;;;;5011912;28;20758;-76
2022/04/19 05:44:47;;;;;;;1.67;1.53;;;5.00;90.10;;;;;;5008464;28;20187;-74
2022/04/19 05:47:15;;;;;;;1.50;1.40;;;5.00;89.80;;;;;;5011843;28;20216;-74
2022/04/19 05:49:40;;;;;;;1.67;1.57;;;5.10;89.00;;;;;;5010497;28;20285;-74
2022/04/19 05:52:06;;;;;;;1.97;1.57;;;5.00;88.50;;;;;;5013259;28;20212;-74
2022/04/19 05:54:32;;;;;;;2.10;1.63;;;5.00;88.40;;;;;;5010500;28;20183;-74
2022/04/19 05:56:58;;;;;;;1.20;1.10;;;5.00;88.50;;;;;;5010105;28;20844;-74
2022/04/19 05:59:23;;;;;;;2.10;1.43;;;4.90;88.40;;;;;;5008166;28;20263;-74
2022/04/19 06:07:17;;;;;;;1.43;1.27;;;4.90;89.40;;;;;;5007437;28;20624;-73
2022/04/19 06:09:43;;;;;;;1.33;1.23;;;4.80;89.40;;;;;;5010358;28;20184;-74
2022/04/19 06:12:09;;;;;;;1.00;1.00;;;4.90;89.50;;;;;;5009510;28;20226;-73
2022/04/19 06:14:35;;;;;;;1.37;1.23;;;5.00;89.60;;;;;;5009817;28;20769;-73
2022/04/19 06:17:00;;;;;;;1.37;1.37;;;5.00;89.70;;;;;;5013447;28;20189;-73
2022/04/19 06:19:27;;;;;;;1.07;0.97;;;5.10;89.50;;;;;;5016222;28;20195;-74
2022/04/19 06:21:53;;;;;;;1.00;1.00;;;5.10;89.60;;;;;;5012395;28;20675;-73
2022/04/19 06:24:19;;;;;;;1.77;1.37;;;5.10;90.10;;;;;;5010974;28;20185;-75
2022/04/19 06:26:45;;;;;;;1.00;1.00;;;5.20;90.30;;;;;;5007249;28;20667;-74
2022/04/19 06:29:11;;;;;;;0.77;0.77;;;5.30;90.20;;;;;;5008645;28;20661;-74
2022/04/19 06:31:37;;;;;;;0.90;0.90;;;5.40;89.90;;;;;;5010751;28;20694;-74
2022/04/19 06:34:02;;;;;;;0.90;0.90;;;5.50;90.00;;;;;;5005240;28;20263;-73
2022/04/19 06:36:28;;;;;;;1.43;1.23;;;5.60;90.00;;;;;;5006643;28;20614;-74
2022/04/19 06:38:54;;;;;;;1.00;1.00;;;5.70;90.10;;;;;;5007483;28;20671;-74
2022/04/19 06:41:20;;;;;;;1.43;1.33;;;5.80;90.00;;;;;;5009355;28;20270;-74
2022/04/19 06:43:46;;;;;;;0.83;0.83;;;5.90;89.70;;;;;;5006763;28;20188;-74
2022/04/19 06:46:12;;;;;;;1.63;1.30;;;6.00;89.50;;;;;;5008622;28;20181;-74
2022/04/19 06:48:38;;;;;;;5.13;1.53;;;6.10;89.30;;;;;;5006338;28;20188;-75
2022/04/19 06:51:04;;;;;;;1.37;1.33;;;6.10;89.10;;;;;;5012836;28;20195;-74
2022/04/19 06:53:30;;;;;;;0.83;0.83;;;6.20;88.60;;;;;;5000343;28;20189;-75
2022/04/19 06:55:56;;;;;;;1.10;1.10;;;6.20;88.30;;;;;;5011910;28;20239;-74
2022/04/19 06:58:22;;;;;;;1.20;1.00;;;6.20;88.20;;;;;;5008310;28;20199;-74
2022/04/19 07:00:48;;;;;;;1.07;0.97;;;6.30;87.20;;;;;;5008861;28;20212;-74
2022/04/19 07:03:14;;;;;;;0.83;0.83;;;6.30;86.90;;;;;;5002783;28;20210;-74
2022/04/19 07:05:41;;;;;;;0.80;0.80;;;6.20;87.40;;;;;;5006583;28;20190;-76
2022/04/19 07:08:07;;;;;;;2.83;0.77;;;6.30;87.40;;;;;;5010049;28;20170;-75
2022/04/19 07:10:36;;;;;;;0.73;0.73;;;6.30;87.50;;;;;;5010320;28;20653;-75
2022/04/19 07:13:02;;;;;;;0.90;0.90;;;6.20;87.20;;;;;;5007578;28;20216;-75
2022/04/19 07:15:28;;;;;;;0.60;0.60;;;6.20;87.10;;;;;;5003133;28;20276;-73
2022/04/19 07:17:53;;;;;;;0.63;0.63;;;6.20;86.70;;;;;;5007751;28;20823;-74
2022/04/19 07:28:35;;;;;;;1.10;1.10;;;6.40;86.70;;;;;;5007816;28;20637;-74
2022/04/19 07:31:03;;;;;;;0.90;0.90;;;6.40;85.80;;;;;;5007304;28;20192;-75
2022/04/19 07:33:29;;;;;;;1.03;0.87;;;6.30;85.90;;;;;;5003644;28;20185;-73
2022/04/19 07:35:55;;;;;;;0.93;0.93;;;6.10;86.10;;;;;;5006657;28;20185;-75
2022/04/19 07:38:23;;;;;;;1.00;1.00;;;6.10;86.60;;;;;;5003885;28;20191;-74
2022/04/19 07:40:49;;;;;;;5.37;1.00;;;6.10;86.60;;;;;;5005223;28;20339;-74
2022/04/19 07:43:15;;;;;;;0.83;0.83;;;6.10;86.70;;;;;;5015343;28;20653;-74
2022/04/19 07:45:41;;;;;;;0.70;0.70;;;6.20;86.90;;;;;;5009507;28;20184;-75
2022/04/19 07:48:07;;;;;;;0.77;0.77;;;6.20;85.70;;;;;;5007021;28;20226;-74
2022/04/19 07:50:37;;;;;;;0.77;0.77;;;6.30;86.10;;;;;;5013761;28;20185;-74
2022/04/19 07:53:03;;;;;;;1.00;1.00;;;6.30;86.30;;;;;;5007186;28;21143;-74
2022/04/19 07:55:29;;;;;;;0.87;0.87;;;6.40;86.50;;;;;;5001918;28;20188;-73
2022/04/19 07:57:55;;;;;;;2.30;0.73;;;6.40;85.90;;;;;;5004948;28;20743;-74
2022/04/19 08:00:22;;;;;;;0.40;0.40;;;6.50;86.10;;;;;;5005127;28;21090;-73
2022/04/19 08:02:48;;;;;;;0.67;0.50;;;6.50;84.70;;;;;;5010171;28;20182;-73
2022/04/19 08:05:14;;;;;;;1.60;0.60;;;6.60;85.00;;;;;;5006407;28;20267;-74
2022/04/19 08:07:40;;;;;;;0.80;0.80;;;6.70;84.70;;;;;;5008926;28;20211;-74
2022/04/19 08:10:06;;;;;;;0.70;0.70;;;6.70;84.40;;;;;;5003370;28;20636;-74
2022/04/19 08:12:32;;;;;;;0.43;0.43;;;6.90;83.80;;;;;;5009014;28;20193;-74
2022/04/19 08:14:58;;;;;;;0.50;0.50;;;6.90;84.30;;;;;;5007964;28;20201;-74
2022/04/19 08:17:24;;;;;;;0.70;0.70;;;7.20;83.90;;;;;;5005642;28;20807;-74
2022/04/19 08:19:50;;;;;;;0.70;0.60;;;7.30;83.50;;;;;;5006564;28;20224;-74
2022/04/19 08:22:16;;;;;;;0.73;0.73;;;7.50;81.50;;;;;;5007880;28;20223;-73
2022/04/19 08:24:42;;;;;;;1.07;1.00;;;7.50;81.80;;;;;;5002771;28;20186;-74
2022/04/19 08:27:08;;;;;;;0.70;0.70;;;7.50;80.60;;;;;;5010548;28;20181;-74
2022/04/19 08:29:34;;;;;;;0.73;0.73;;;7.60;80.90;;;;;;5002361;28;20246;-74
2022/04/19 08:31:59;;;;;;;0.70;0.70;;;7.60;80.40;;;;;;5008962;28;20250;-75
2022/04/19 08:34:25;;;;;;;0.53;0.53;;;7.70;81.30;;;;;;5012573;28;20191;-74
2022/04/19 08:36:51;;;;;;;0.67;0.67;;;7.80;82.20;;;;;;5010140;28;20267;-74
2022/04/19 08:39:17;;;;;;;1.00;0.63;;;8.00;82.90;;;;;;5007857;28;20295;-74
2022/04/19 08:41:44;;;;;;;0.87;0.87;;;8.20;82.60;;;;;;5010343;28;20788;-75
2022/04/19 08:44:10;;;;;;;1.47;0.90;;;8.40;81.20;;;;;;5010540;28;20195;-73
2022/04/19 08:46:39;;;;;;;2.50;1.03;;;8.60;78.70;;;;;;5005208;28;20196;-73
2022/04/19 08:49:05;;;;;;;0.60;0.60;;;8.60;78.10;;;;;;5005983;28;20191;-73
2022/04/19 08:51:36;;;;;;;1.43;1.00;;;8.70;77.00;;;;;;5001551;28;20670;-76
2022/04/19 08:59:31;;;;;;;1.10;1.10;;;9.00;75.20;;;;;;5007280;28;20732;-75
2022/04/19 09:01:58;;;;;;;1.00;1.00;;;9.00;75.00;;;;;;5000308;28;20195;-75
2022/04/19 09:04:25;;;;;;;1.03;0.90;;;9.10;73.90;;;;;;5011927;28;20274;-74
2022/04/19 09:06:56;;;;;;;2.20;0.90;;;9.40;75.80;;;;;;5008584;28;20180;-74
2022/04/19 09:09:27;;;;;;;1.10;1.10;;;9.60;73.90;;;;;;5004338;28;20185;-76
2022/04/19 09:12:05;;;;;;;2.00;0.80;;;9.60;72.20;;;;;;5010480;28;20235;-74
2022/04/19 09:14:31;;;;;;;1.00;1.00;;;9.50;72.00;;;;;;5010413;28;20184;-74
2022/04/19 09:17:06;;;;;;;0.80;0.80;;;9.50;73.20;;;;;;5014289;28;20757;-74
2022/04/19 09:19:32;;;;;;;1.17;1.17;;;9.30;72.70;;;;;;5013491;28;21036;-75
2022/04/19 09:21:58;;;;;;;0.90;0.73;;;9.30;74.20;;;;;;5015168;28;20220;-75
2022/04/19 09:24:28;;;;;;;1.00;1.00;;;9.40;75.00;;;;;;5011795;28;20188;-75
2022/04/19 09:26:54;;;;;;;0.77;0.77;;;9.50;75.30;;;;;;5016229;28;20193;-75
2022/04/19 09:29:22;;;;;;;1.20;1.20;;;9.70;75.30;;;;;;5010529;28;20635;-74
2022/04/19 09:31:51;;;;;;;1.30;1.30;;;9.80;75.00;;;;;;5008602;28;20338;-74
2022/04/19 09:34:47;;;;;;;1.50;1.23;;;10.10;75.50;;;;;;5014685;28;20181;-76
2022/04/19 09:37:13;;;;;;;1.33;1.10;;;10.70;75.70;;;;;;5024354;28;20201;-74
2022/04/19 09:39:40;;;;;;;1.20;1.20;;;11.40;75.40;;;;;;5012640;28;20181;-73
2022/04/19 09:42:13;;;;;;;0.83;0.83;;;12.40;72.20;;;;;;5008911;28;20180;-74
2022/04/19 09:44:41;;;;;;;1.37;1.37;;;13.20;69.30;;;;;;5010141;28;20181;-74
2022/04/19 09:47:12;;;;;;;1.33;1.33;;;14.10;64.30;;;;;;5013370;28;20248;-73
2022/04/19 09:49:58;;;;;;;1.40;1.40;;;14.80;62.30;;;;;;5010888;28;20720;-72
2022/04/19 09:52:24;;;;;;;1.60;0.98;;;15.20;60.20;;;;;;5009531;28;20250;-73
2022/04/19 09:55:08;;;;;;;1.73;1.73;;;15.60;59.90;;;;;;5009187;28;20721;-74
2022/04/19 09:57:36;;;;;;;2.45;2.35;;;15.90;59.50;;;;;;5007512;28;20188;-72
2022/04/19 10:00:13;;;;;;;1.48;1.48;;;15.90;57.10;;;;;;5007694;28;20205;-73
2022/04/19 10:08:19;;;;;;;1.80;1.70;;;16.60;60.30;;;;;;5002865;28;20207;-72
2022/04/19 10:10:56;;;;;;;1.63;1.52;;;17.10;60.60;;;;;;5005084;28;20192;-72
2022/04/19 10:13:25;;;;;;;1.70;1.60;;;17.40;58.60;;;;;;5012004;28;20180;-72
2022/04/19 10:15:52;;;;;;;1.23;1.23;;;17.70;57.40;;;;;;5007756;28;20215;-72
2022/04/19 10:18:18;;;;;;;1.25;1.25;;;18.00;54.10;;;;;;5009364;28;20651;-74
2022/04/19 10:20:59;;;;;;;1.40;1.30;;;18.10;51.50;;;;;;5003870;28;20217;-73
2022/04/19 10:23:37;;;;;;;1.35;1.27;;;18.10;52.00;;;;;;5008117;28;20199;-71
2022/04/19 10:26:23;;;;;;;1.17;1.17;;;18.20;53.40;;;;;;5006070;28;20263;-72
2022/04/19 10:28:55;;;;;;;0.82;0.82;;;18.80;53.60;;;;;;5004602;28;20619;-73
2022/04/19 10:31:31;;;;;;;1.30;1.30;;;19.00;54.20;;;;;;5005427;28;20360;-72
2022/04/19 10:34:01;;;;;;;1.25;1.25;;;19.10;51.60;;;;;;5006040;28;20195;-73
2022/04/19 10:36:33;;;;;;;1.25;1.17;;;19.00;50.90;;;;;;5009625;28;20566;-72
2022/04/19 10:39:16;;;;;;;1.10;1.00;;;18.60;49.40;;;;;;5012821;28;20181;-72
2022/04/19 10:41:53;;;;;;;1.90;1.13;;;18.50;52.80;;;;;;5006803;28;20290;-73
2022/04/19 10:44:25;;;;;;;0.90;0.90;;;18.70;52.20;;;;;;5003939;28;20231;-73
2022/04/19 10:47:03;;;;;;;1.00;1.00;;;19.00;51.30;;;;;;5003052;28;21740;-72
2022/04/19 10:49:29;;;;;;;0.93;0.90;;;18.40;50.70;;;;;;4999338;28;20196;-73
2022/04/19 10:52:01;;;;;;;1.05;1.05;;;17.90;49.10;;;;;;5005958;28;20185;-72
2022/04/19 10:55:01;;;;;;;1.10;1.10;;;17.10;47.70;;;;;;4997479;28;20185;-72
2022/04/19 11:00:22;;;;;;;0.98;0.98;;;15.30;51.50;;;;;;4996209;28;20223;-72
2022/04/19 11:03:00;;;;;;;1.08;1.08;;;15.10;51.50;;;;;;5003827;28;20184;-72
2022/04/19 11:05:42;;;;;;;1.05;0.93;;;15.40;51.90;;;;;;5002950;28;20254;-72
2022/04/19 11:08:26;;;;;;;0.90;0.90;;;15.80;50.90;;;;;;5003867;28;20585;-72
2022/04/19 11:10:58;;;;;;;1.00;1.00;;;16.30;50.30;;;;;;5009578;28;20188;-72
2022/04/19 11:13:26;;;;;;;0.98;0.98;;;16.40;48.90;;;;;;5004777;28;20180;-72
2022/04/19 11:16:06;;;;;;;0.93;0.93;;;16.80;50.70;;;;;;5009261;28;20288;-72
2022/04/19 11:18:41;;;;;;;1.00;1.00;;;17.30;50.10;;;;;;5018221;28;20231;-72
2022/04/19 11:21:15;;;;;;;1.00;1.00;;;17.60;49.30;;;;;;5006568;28;20768;-73
2022/04/19 11:23:48;;;;;;;1.05;1.05;;;17.50;48.30;;;;;;5008274;28;20254;-73
2022/04/19 11:26:33;;;;;;;0.90;0.90;;;17.00;49.30;;;;;;5006861;28;20184;-74
2022/04/19 11:29:08;;;;;;;1.13;1.13;;;16.40;49.10;;;;;;5002682;28;20280;-73
2022/04/19 11:31:54;;;;;;;1.00;1.00;;;16.00;49.90;;;;;;5010663;28;20192;-72
2022/04/19 11:34:20;;;;;;;0.60;0.60;;;15.60;49.30;;;;;;4960670;28;21030;-73
2022/04/19 11:36:45;;;;;;;1.50;0.77;;;15.30;50.90;;;;;;4969523;28;20197;-73
2022/04/19 11:47:48;;;;;;;1.23;1.23;;;16.20;46.80;;;;;;4960795;28;20186;-72
2022/04/19 11:50:31;;;;;;;1.15;1.15;;;15.90;47.20;;;;;;4967694;28;20194;-72
2022/04/19 11:53:00;;;;;;;0.73;0.73;;;15.10;47.40;;;;;;4961984;28;20200;-73
2022/04/19 11:55:27;;;;;;;0.52;0.52;;;13.90;47.60;;;;;;4959335;28;20185;-72
2022/04/19 11:58:22;;;;;;;0.80;0.80;;;12.80;49.80;;;;;;4966125;28;20202;-73
2022/04/19 12:01:05;;;;;;;1.10;1.10;;;12.30;51.70;;;;;;4947769;28;20227;-72
2022/04/19 12:03:37;;;;;;;0.70;0.70;;;11.50;55.40;;;;;;4947104;28;20203;-73
2022/04/19 12:06:08;;;;;;;0.70;0.70;;;11.00;57.50;;;;;;4946727;28;20375;-73
2022/04/19 12:08:42;;;;;;;1.00;1.00;;;11.00;58.10;;;;;;4948073;28;21142;-73
2022/04/19 12:11:10;;;;;;;0.80;0.80;;;11.00;58.30;;;;;;4957009;28;20256;-73
2022/04/19 12:13:37;;;;;;;0.87;0.87;;;11.10;57.70;;;;;;4963451;28;20211;-74
2022/04/19 12:16:09;;;;;;;0.80;0.80;;;11.10;57.20;;;;;;4973488;28;20186;-74
2022/04/19 12:18:37;;;;;;;0.80;0.80;;;11.20;57.80;;;;;;4953570;28;20193;-73
2022/04/19 12:21:05;;;;;;;0.70;0.70;;;11.40;56.60;;;;;;4971639;28;20265;-73
2022/04/19 12:23:31;;;;;;;0.68;0.68;;;11.80;56.80;;;;;;4967852;28;20248;-73
2022/04/19 12:26:08;;;;;;;0.57;0.57;;;12.50;57.30;;;;;;4969970;28;20290;-73
2022/04/19 12:28:45;;;;;;;0.57;0.57;;;13.60;57.60;;;;;;4956059;28;20198;-73
2022/04/19 12:31:37;;;;;;;0.60;0.60;;;14.90;53.60;;;;;;4991905;28;20243;-73
2022/04/19 12:34:04;;;;;;;0.60;0.60;;;16.20;52.00;;;;;;5004268;28;20792;-73
2022/04/19 12:36:48;;;;;;;2.03;0.60;;;17.30;49.70;;;;;;5008587;28;20268;-73
2022/04/19 12:39:19;;;;;;;0.60;0.60;;;18.30;48.70;;;;;;5010105;28;20180;-73
2022/04/19 12:41:46;;;;;;;0.52;0.52;;;19.20;49.20;;;;;;5008335;28;20786;-73
2022/04/19 12:44:17;;;;;;;0.93;0.80;;;19.70;45.80;;;;;;5006936;28;20183;-75
2022/04/19 12:46:45;;;;;;;1.23;0.70;;;19.70;46.50;;;;;;5005300;28;20187;-75
2022/04/19 12:49:31;;;;;;;1.15;0.88;;;19.30;43.10;;;;;;5006022;28;20257;-75
2022/04/19 12:52:07;;;;;;;0.70;0.70;;;18.50;44.40;;;;;;5007471;28;20191;-74
2022/04/19 12:54:35;;;;;;;0.70;0.70;;;17.50;45.20;;;;;;5008032;28;20644;-75
2022/04/19 12:57:03;;;;;;;0.90;0.90;;;16.80;46.90;;;;;;4997842;28;20181;-75
2022/04/19 12:59:33;;;;;;;0.88;0.60;;;16.40;48.10;;;;;;5002433;28;20181;-74
2022/04/19 13:02:00;;;;;;;0.60;0.60;;;16.10;47.70;;;;;;5004293;28;20215;-74
2022/04/19 13:04:26;;;;;;;0.80;0.80;;;16.10;50.30;;;;;;5004359;28;20201;-74
2022/04/19 13:12:23;;;;;;;3.17;0.93;;;17.30;47.40;;;;;;5002616;28;20630;-74
2022/04/19 13:14:52;;;;;;;0.52;0.52;;;17.70;48.10;;;;;;5004296;28;20188;-75
2022/04/19 13:17:19;;;;;;;0.93;0.93;;;18.00;47.80;;;;;;5003592;28;20181;-74
2022/04/19 13:19:47;;;;;;;0.85;0.85;;;18.10;47.80;;;;;;5002135;28;20303;-75
2022/04/19 13:22:13;;;;;;;0.98;0.98;;;17.90;48.40;;;;;;4999897;28;20602;-74
2022/04/19 13:24:40;;;;;;;0.90;0.90;;;17.70;48.60;;;;;;4998493;28;20184;-73
2022/04/19 13:27:12;;;;;;;0.98;0.98;;;17.30;49.10;;;;;;4999881;28;20195;-73
2022/04/19 13:29:40;;;;;;;0.93;0.93;;;16.90;49.10;;;;;;5003878;28;20181;-72
2022/04/19 13:32:07;;;;;;;3.15;0.85;;;16.40;49.30;;;;;;5004498;28;20263;-73
2022/04/19 13:34:33;;;;;;;0.80;0.80;;;16.10;49.30;;;;;;4993813;28;20231;-72
2022/04/19 13:37:00;;;;;;;2.30;0.90;;;15.70;50.10;;;;;;5013960;28;20596;-72
2022/04/19 13:39:27;;;;;;;0.95;0.90;;;15.60;49.60;;;;;;4999218;28;20497;-72
2022/04/19 13:41:53;;;;;;;1.10;1.10;;;15.50;50.00;;;;;;4996123;28;20250;-72
2022/04/19 13:44:19;;;;;;;0.75;0.75;;;15.50;49.90;;;;;;4998580;28;20796;-73
2022/04/19 13:46:46;;;;;;;0.70;0.70;;;15.90;50.10;;;;;;4999062;28;20173;-72
2022/04/19 13:49:13;;;;;;;0.70;0.70;;;16.30;51.00;;;;;;5006562;28;20183;-72
2022/04/19 13:51:42;;;;;;;1.00;1.00;;;16.70;50.00;;;;;;5006257;28;20223;-73
2022/04/19 13:54:12;;;;;;;1.10;1.10;;;17.00;48.70;;;;;;5004195;28;21427;-72